sensor_id;sensor_type;location;lat;lon;timestamp;pressure;altitude;pressure_sealevel;temperature;humidity
20710;BME280;10516;51.518;9.864;2023-11-19T00:01:22;98341.47;;;4.81;93.93
20710;BME280;10516;51.518;9.864;2023-11-19T00:03:48;98349.03;;;5.07;92.20
20710;BME280;10516;51.518;9.864;2023-11-19T00:06:14;98351.41;;;5.26;91.60
20710;BME280;10516;51.518;9.864;2023-11-19T00:08:39;98320.50;;;4.68;94.55
20710;BME280;10516;51.518;9.864;2023-11-19T00:11:05;98338.97;;;4.86;94.49
20710;BME280;10516;51.518;9.864;2023-11-19T00:13:30;98316.34;;;4.90;94.44
20710;BME280;10516;51.518;9.864;2023-11-19T00:15:56;98313.50;;;4.91;94.35
20710;BME280;10516;51.518;9.864;2023-11-19T00:18:21;98321.91;;;5.00;93.83
20710;BME280;10516;51.518;9.864;2023-11-19T00:20:47;98318.50;;;5.22;92.70
20710;BME280;10516;51.518;9.864;2023-11-19T00:23:12;98297.81;;;5.19;92.05
20710;BME280;10516;51.518;9.864;2023-11-19T00:25:38;98309.69;;;5.40;91.96
20710;BME280;10516;51.518;9.864;2023-11-19T00:28:04;98302.09;;;5.32;92.03
20710;BME280;10516;51.518;9.864;2023-11-19T00:30:29;98300.94;;;5.28;91.58
20710;BME280;10516;51.518;9.864;2023-11-19T00:32:56;98288.13;;;5.13;93.04
20710;BME280;10516;51.518;9.864;2023-11-19T00:35:21;98289.66;;;5.32;92.57
20710;BME280;10516;51.518;9.864;2023-11-19T00:37:47;98289.41;;;5.22;92.72
20710;BME280;10516;51.518;9.864;2023-11-19T00:40:13;98276.38;;;5.09;93.94
20710;BME280;10516;51.518;9.864;2023-11-19T00:42:38;98264.44;;;5.18;93.93
20710;BME280;10516;51.518;9.864;2023-11-19T00:45:04;98263.19;;;5.21;93.14
20710;BME280;10516;51.518;9.864;2023-11-19T00:47:34;98246.59;;;5.14;94.29
20710;BME280;10516;51.518;9.864;2023-11-19T00:50:01;98254.47;;;5.32;93.67
20710;BME280;10516;51.518;9.864;2023-11-19T00:52:26;98254.66;;;5.07;94.83
20710;BME280;10516;51.518;9.864;2023-11-19T00:54:51;98231.75;;;5.01;95.24
20710;BME280;10516;51.518;9.864;2023-11-19T00:57:17;98227.88;;;5.04;95.68
20710;BME280;10516;51.518;9.864;2023-11-19T00:59:43;98228.78;;;5.09;95.50
20710;BME280;10516;51.518;9.864;2023-11-19T01:02:08;98220.94;;;5.03;95.17
20710;BME280;10516;51.518;9.864;2023-11-19T01:04:34;98221.78;;;4.62;99.97
20710;BME280;10516;51.518;9.864;2023-11-19T01:07:02;98203.69;;;5.00;96.64
20710;BME280;10516;51.518;9.864;2023-11-19T01:09:29;98221.53;;;5.05;97.13
20710;BME280;10516;51.518;9.864;2023-11-19T01:11:57;98208.09;;;5.18;94.77
20710;BME280;10516;51.518;9.864;2023-11-19T01:14:22;98212.22;;;5.14;95.17
20710;BME280;10516;51.518;9.864;2023-11-19T01:16:47;98207.63;;;5.09;96.27
20710;BME280;10516;51.518;9.864;2023-11-19T01:19:13;98203.38;;;5.20;95.29
20710;BME280;10516;51.518;9.864;2023-11-19T01:21:39;98198.69;;;5.22;95.14
20710;BME280;10516;51.518;9.864;2023-11-19T01:24:05;98186.59;;;5.14;97.23
20710;BME280;10516;51.518;9.864;2023-11-19T01:26:34;98191.16;;;5.42;94.55
20710;BME280;10516;51.518;9.864;2023-11-19T01:29:00;98185.66;;;5.09;97.44
20710;BME280;10516;51.518;9.864;2023-11-19T01:31:26;98184.97;;;5.25;96.28
20710;BME280;10516;51.518;9.864;2023-11-19T01:33:52;98188.53;;;4.84;100.00
20710;BME280;10516;51.518;9.864;2023-11-19T01:36:17;98182.22;;;5.08;98.91
20710;BME280;10516;51.518;9.864;2023-11-19T01:38:42;98175.00;;;5.15;97.56
20710;BME280;10516;51.518;9.864;2023-11-19T01:41:08;98176.31;;;4.83;99.87
20710;BME280;10516;51.518;9.864;2023-11-19T01:43:35;98176.44;;;4.88;100.00
20710;BME280;10516;51.518;9.864;2023-11-19T01:46:02;98159.56;;;5.01;100.00
20710;BME280;10516;51.518;9.864;2023-11-19T01:48:29;98181.41;;;5.08;99.30
20710;BME280;10516;51.518;9.864;2023-11-19T01:50:55;98174.28;;;5.43;95.74
20710;BME280;10516;51.518;9.864;2023-11-19T01:53:22;98163.13;;;5.29;96.76
20710;BME280;10516;51.518;9.864;2023-11-19T01:55:48;98170.13;;;5.36;95.79
20710;BME280;10516;51.518;9.864;2023-11-19T01:58:15;98162.31;;;5.41;95.65
20710;BME280;10516;51.518;9.864;2023-11-19T02:00:41;98171.41;;;5.10;97.96
20710;BME280;10516;51.518;9.864;2023-11-19T02:03:07;98152.19;;;5.26;96.35
20710;BME280;10516;51.518;9.864;2023-11-19T02:05:33;98148.38;;;5.45;95.33
20710;BME280;10516;51.518;9.864;2023-11-19T02:08:00;98138.13;;;5.49;96.04
20710;BME280;10516;51.518;9.864;2023-11-19T02:10:26;98148.13;;;5.58;95.74
20710;BME280;10516;51.518;9.864;2023-11-19T02:12:51;98136.41;;;5.43;97.04
20710;BME280;10516;51.518;9.864;2023-11-19T02:15:17;98141.56;;;5.61;96.52
20710;BME280;10516;51.518;9.864;2023-11-19T02:17:44;98147.16;;;5.76;94.68
20710;BME280;10516;51.518;9.864;2023-11-19T02:20:10;98144.88;;;5.68;97.10
20710;BME280;10516;51.518;9.864;2023-11-19T02:22:40;98147.16;;;5.76;97.22
20710;BME280;10516;51.518;9.864;2023-11-19T02:25:07;98149.00;;;5.75;98.57
20710;BME280;10516;51.518;9.864;2023-11-19T02:27:49;98137.38;;;5.76;98.82
20710;BME280;10516;51.518;9.864;2023-11-19T02:30:16;98123.91;;;5.78;99.53
20710;BME280;10516;51.518;9.864;2023-11-19T02:32:42;98121.81;;;5.80;98.90
20710;BME280;10516;51.518;9.864;2023-11-19T02:35:08;98099.16;;;5.84;99.44
20710;BME280;10516;51.518;9.864;2023-11-19T02:37:34;98106.50;;;5.82;99.52
20710;BME280;10516;51.518;9.864;2023-11-19T02:39:59;98107.56;;;5.81;100.00
20710;BME280;10516;51.518;9.864;2023-11-19T02:42:28;98092.84;;;5.73;99.97
20710;BME280;10516;51.518;9.864;2023-11-19T02:44:53;98092.75;;;5.96;99.52
20710;BME280;10516;51.518;9.864;2023-11-19T02:47:18;98078.19;;;5.94;98.80
20710;BME280;10516;51.518;9.864;2023-11-19T02:49:49;98082.72;;;5.98;98.65
20710;BME280;10516;51.518;9.864;2023-11-19T02:52:14;98069.31;;;5.88;99.71
20710;BME280;10516;51.518;9.864;2023-11-19T02:54:40;98057.56;;;5.96;99.75
20710;BME280;10516;51.518;9.864;2023-11-19T02:57:06;98062.50;;;5.92;99.73
20710;BME280;10516;51.518;9.864;2023-11-19T02:59:37;98071.44;;;6.03;100.00
20710;BME280;10516;51.518;9.864;2023-11-19T03:02:05;98078.25;;;5.99;100.00
20710;BME280;10516;51.518;9.864;2023-11-19T03:04:33;98072.34;;;6.09;99.95
20710;BME280;10516;51.518;9.864;2023-11-19T03:06:58;98077.94;;;6.12;99.52
20710;BME280;10516;51.518;9.864;2023-11-19T03:09:23;98070.25;;;6.11;100.00
20710;BME280;10516;51.518;9.864;2023-11-19T03:11:49;98068.72;;;6.15;100.00
20710;BME280;10516;51.518;9.864;2023-11-19T03:14:15;98059.97;;;6.14;100.00
20710;BME280;10516;51.518;9.864;2023-11-19T03:16:40;98051.16;;;6.09;100.00
20710;BME280;10516;51.518;9.864;2023-11-19T03:19:05;98055.63;;;6.08;100.00
20710;BME280;10516;51.518;9.864;2023-11-19T03:21:31;98068.97;;;6.13;100.00
20710;BME280;10516;51.518;9.864;2023-11-19T03:23:57;98053.78;;;6.09;100.00
20710;BME280;10516;51.518;9.864;2023-11-19T03:26:26;98033.81;;;6.18;100.00
20710;BME280;10516;51.518;9.864;2023-11-19T03:28:51;98016.28;;;6.17;100.00
20710;BME280;10516;51.518;9.864;2023-11-19T03:31:17;98029.78;;;6.15;100.00
20710;BME280;10516;51.518;9.864;2023-11-19T03:33:42;98022.97;;;6.19;100.00
20710;BME280;10516;51.518;9.864;2023-11-19T03:36:07;98025.88;;;6.18;100.00
20710;BME280;10516;51.518;9.864;2023-11-19T03:38:34;98003.94;;;6.22;100.00
20710;BME280;10516;51.518;9.864;2023-11-19T03:40:59;98007.47;;;6.28;100.00
20710;BME280;10516;51.518;9.864;2023-11-19T03:43:25;98017.91;;;6.18;100.00
20710;BME280;10516;51.518;9.864;2023-11-19T03:45:50;98016.22;;;6.28;100.00
20710;BME280;10516;51.518;9.864;2023-11-19T03:48:15;98029.72;;;6.27;100.00
20710;BME280;10516;51.518;9.864;2023-11-19T03:50:41;98017.81;;;6.29;100.00
20710;BME280;10516;51.518;9.864;2023-11-19T03:53:07;98014.84;;;6.26;100.00
20710;BME280;10516;51.518;9.864;2023-11-19T03:55:32;98011.97;;;6.27;100.00
20710;BME280;10516;51.518;9.864;2023-11-19T03:57:58;98026.91;;;6.33;100.00
20710;BME280;10516;51.518;9.864;2023-11-19T04:00:23;98002.09;;;6.23;100.00
20710;BME280;10516;51.518;9.864;2023-11-19T04:02:49;98005.94;;;6.32;100.00
20710;BME280;10516;51.518;9.864;2023-11-19T04:05:14;98017.91;;;6.34;100.00
20710;BME280;10516;51.518;9.864;2023-11-19T04:07:39;98012.31;;;6.31;100.00
20710;BME280;10516;51.518;9.864;2023-11-19T04:10:05;98024.31;;;6.38;100.00
20710;BME280;10516;51.518;9.864;2023-11-19T04:12:30;98027.63;;;6.45;100.00
20710;BME280;10516;51.518;9.864;2023-11-19T04:14:56;98005.47;;;6.35;100.00
20710;BME280;10516;51.518;9.864;2023-11-19T04:17:21;98001.53;;;6.37;100.00
20710;BME280;10516;51.518;9.864;2023-11-19T04:19:48;98010.34;;;6.43;100.00
20710;BME280;10516;51.518;9.864;2023-11-19T04:22:14;98011.81;;;6.50;100.00
20710;BME280;10516;51.518;9.864;2023-11-19T04:24:39;97998.22;;;6.47;100.00
20710;BME280;10516;51.518;9.864;2023-11-19T04:27:06;98001.69;;;6.47;100.00
20710;BME280;10516;51.518;9.864;2023-11-19T04:29:31;97998.84;;;6.54;100.00
20710;BME280;10516;51.518;9.864;2023-11-19T04:31:57;98001.75;;;6.52;100.00
20710;BME280;10516;51.518;9.864;2023-11-19T04:34:22;97996.22;;;6.54;100.00
20710;BME280;10516;51.518;9.864;2023-11-19T04:36:48;98013.19;;;6.53;100.00
20710;BME280;10516;51.518;9.864;2023-11-19T04:39:14;98023.34;;;6.61;100.00
20710;BME280;10516;51.518;9.864;2023-11-19T04:41:50;98009.72;;;6.52;100.00
20710;BME280;10516;51.518;9.864;2023-11-19T04:44:18;98004.00;;;6.60;100.00
20710;BME280;10516;51.518;9.864;2023-11-19T04:46:44;98000.41;;;6.50;100.00
20710;BME280;10516;51.518;9.864;2023-11-19T04:49:10;98000.69;;;6.53;100.00
20710;BME280;10516;51.518;9.864;2023-11-19T04:51:42;97990.44;;;6.57;100.00
20710;BME280;10516;51.518;9.864;2023-11-19T04:54:08;97999.75;;;6.59;100.00
20710;BME280;10516;51.518;9.864;2023-11-19T04:56:34;98001.09;;;6.62;100.00
20710;BME280;10516;51.518;9.864;2023-11-19T04:59:01;97991.06;;;6.64;100.00
20710;BME280;10516;51.518;9.864;2023-11-19T05:01:27;97983.28;;;6.57;100.00
20710;BME280;10516;51.518;9.864;2023-11-19T05:03:52;97978.75;;;6.58;100.00
20710;BME280;10516;51.518;9.864;2023-11-19T05:06:18;97984.97;;;6.63;100.00
20710;BME280;10516;51.518;9.864;2023-11-19T05:08:44;97966.78;;;6.55;100.00
20710;BME280;10516;51.518;9.864;2023-11-19T05:11:09;97973.47;;;6.58;100.00
20710;BME280;10516;51.518;9.864;2023-11-19T05:13:37;97977.47;;;6.60;100.00
20710;BME280;10516;51.518;9.864;2023-11-19T05:16:03;97962.84;;;6.58;100.00
20710;BME280;10516;51.518;9.864;2023-11-19T05:18:29;97975.00;;;6.54;100.00
20710;BME280;10516;51.518;9.864;2023-11-19T05:20:54;97979.28;;;6.55;100.00
20710;BME280;10516;51.518;9.864;2023-11-19T05:23:19;97976.13;;;6.58;100.00
20710;BME280;10516;51.518;9.864;2023-11-19T05:25:45;97941.22;;;6.44;100.00
20710;BME280;10516;51.518;9.864;2023-11-19T05:28:10;97950.66;;;6.57;100.00
20710;BME280;10516;51.518;9.864;2023-11-19T05:30:36;97955.72;;;6.58;100.00
20710;BME280;10516;51.518;9.864;2023-11-19T05:33:01;97952.34;;;6.63;100.00
20710;BME280;10516;51.518;9.864;2023-11-19T05:35:27;97967.44;;;6.62;100.00
20710;BME280;10516;51.518;9.864;2023-11-19T05:37:52;97972.25;;;6.65;100.00
20710;BME280;10516;51.518;9.864;2023-11-19T05:40:18;97959.84;;;6.71;100.00
20710;BME280;10516;51.518;9.864;2023-11-19T05:42:45;97964.69;;;6.74;100.00
20710;BME280;10516;51.518;9.864;2023-11-19T05:45:11;97994.88;;;6.73;100.00
20710;BME280;10516;51.518;9.864;2023-11-19T05:47:37;97976.09;;;6.74;100.00
20710;BME280;10516;51.518;9.864;2023-11-19T05:50:02;97981.44;;;6.79;100.00
20710;BME280;10516;51.518;9.864;2023-11-19T05:52:29;97977.03;;;6.85;100.00
20710;BME280;10516;51.518;9.864;2023-11-19T05:55:02;97972.19;;;6.82;100.00
20710;BME280;10516;51.518;9.864;2023-11-19T05:57:34;97986.66;;;6.91;100.00
20710;BME280;10516;51.518;9.864;2023-11-19T06:00:00;97990.38;;;6.90;100.00
20710;BME280;10516;51.518;9.864;2023-11-19T06:02:25;97966.25;;;6.92;100.00
20710;BME280;10516;51.518;9.864;2023-11-19T06:04:52;97949.44;;;6.86;100.00
20710;BME280;10516;51.518;9.864;2023-11-19T06:07:18;97961.78;;;6.97;100.00
20710;BME280;10516;51.518;9.864;2023-11-19T06:09:45;97962.28;;;6.94;100.00
20710;BME280;10516;51.518;9.864;2023-11-19T06:12:10;97964.06;;;6.89;100.00
20710;BME280;10516;51.518;9.864;2023-11-19T06:14:35;97973.94;;;6.93;100.00
20710;BME280;10516;51.518;9.864;2023-11-19T06:17:01;97982.44;;;6.95;100.00
20710;BME280;10516;51.518;9.864;2023-11-19T06:19:27;97981.44;;;6.79;100.00
20710;BME280;10516;51.518;9.864;2023-11-19T06:21:52;97978.56;;;6.81;100.00
20710;BME280;10516;51.518;9.864;2023-11-19T06:24:17;97967.41;;;6.79;100.00
20710;BME280;10516;51.518;9.864;2023-11-19T06:26:43;97983.69;;;6.88;100.00
20710;BME280;10516;51.518;9.864;2023-11-19T06:29:08;97988.44;;;6.86;100.00
20710;BME280;10516;51.518;9.864;2023-11-19T06:31:34;97978.56;;;6.81;100.00
20710;BME280;10516;51.518;9.864;2023-11-19T06:33:59;97990.28;;;6.85;100.00
20710;BME280;10516;51.518;9.864;2023-11-19T06:36:24;97992.31;;;6.78;100.00
20710;BME280;10516;51.518;9.864;2023-11-19T06:38:51;97993.38;;;6.77;100.00
20710;BME280;10516;51.518;9.864;2023-11-19T06:41:17;97993.66;;;6.80;100.00
20710;BME280;10516;51.518;9.864;2023-11-19T06:43:42;98003.16;;;6.76;100.00
20710;BME280;10516;51.518;9.864;2023-11-19T06:46:17;97992.19;;;6.68;100.00
20710;BME280;10516;51.518;9.864;2023-11-19T06:48:44;98002.84;;;6.73;100.00
20710;BME280;10516;51.518;9.864;2023-11-19T06:51:10;97993.59;;;6.75;100.00
20710;BME280;10516;51.518;9.864;2023-11-19T06:53:36;97992.88;;;6.80;100.00
20710;BME280;10516;51.518;9.864;2023-11-19T06:56:01;97997.44;;;6.85;100.00
20710;BME280;10516;51.518;9.864;2023-11-19T06:58:31;98000.75;;;6.75;100.00
20710;BME280;10516;51.518;9.864;2023-11-19T07:00:57;97993.94;;;6.62;100.00
20710;BME280;10516;51.518;9.864;2023-11-19T07:03:22;97990.72;;;6.77;100.00
20710;BME280;10516;51.518;9.864;2023-11-19T07:05:48;97988.38;;;6.80;100.00
20710;BME280;10516;51.518;9.864;2023-11-19T07:08:13;97991.50;;;6.77;100.00
20710;BME280;10516;51.518;9.864;2023-11-19T07:10:39;97994.66;;;6.74;100.00
20710;BME280;10516;51.518;9.864;2023-11-19T07:13:04;98005.69;;;6.88;100.00
20710;BME280;10516;51.518;9.864;2023-11-19T07:15:31;97994.41;;;6.76;100.00
20710;BME280;10516;51.518;9.864;2023-11-19T07:17:57;98004.84;;;6.82;100.00
20710;BME280;10516;51.518;9.864;2023-11-19T07:20:24;97993.97;;;6.84;100.00
20710;BME280;10516;51.518;9.864;2023-11-19T07:22:51;97996.69;;;6.89;100.00
20710;BME280;10516;51.518;9.864;2023-11-19T07:25:17;97992.31;;;6.78;100.00
20710;BME280;10516;51.518;9.864;2023-11-19T07:27:43;98001.72;;;6.86;100.00
20710;BME280;10516;51.518;9.864;2023-11-19T07:30:08;97990.75;;;6.82;100.00
20710;BME280;10516;51.518;9.864;2023-11-19T07:32:34;97997.63;;;6.78;100.00
20710;BME280;10516;51.518;9.864;2023-11-19T07:34:59;98004.47;;;6.74;100.00
20710;BME280;10516;51.518;9.864;2023-11-19T07:37:25;97990.63;;;6.72;100.00
20710;BME280;10516;51.518;9.864;2023-11-19T07:39:50;98002.47;;;6.86;100.00
20710;BME280;10516;51.518;9.864;2023-11-19T07:42:15;97991.28;;;6.79;100.00
20710;BME280;10516;51.518;9.864;2023-11-19T07:44:41;98003.97;;;6.77;100.00
20710;BME280;10516;51.518;9.864;2023-11-19T07:47:06;97973.06;;;6.66;100.00
20710;BME280;10516;51.518;9.864;2023-11-19T07:49:32;97999.97;;;6.74;100.00
20710;BME280;10516;51.518;9.864;2023-11-19T07:51:58;97993.53;;;6.70;100.00
20710;BME280;10516;51.518;9.864;2023-11-19T07:54:23;98003.47;;;6.80;100.00
20710;BME280;10516;51.518;9.864;2023-11-19T07:56:49;98004.59;;;6.84;100.00
20710;BME280;10516;51.518;9.864;2023-11-19T07:59:15;97997.19;;;6.86;100.00
20710;BME280;10516;51.518;9.864;2023-11-19T08:01:41;97974.63;;;6.84;100.00
20710;BME280;10516;51.518;9.864;2023-11-19T08:04:06;97981.03;;;6.88;100.00
20710;BME280;10516;51.518;9.864;2023-11-19T08:06:31;97993.31;;;6.94;100.00
20710;BME280;10516;51.518;9.864;2023-11-19T08:08:57;97996.69;;;6.89;100.00
20710;BME280;10516;51.518;9.864;2023-11-19T08:11:22;98005.66;;;7.05;100.00
20710;BME280;10516;51.518;9.864;2023-11-19T08:13:48;98012.81;;;7.04;100.00
20710;BME280;10516;51.518;9.864;2023-11-19T08:16:13;97998.50;;;7.05;100.00
20710;BME280;10516;51.518;9.864;2023-11-19T08:18:42;98013.50;;;7.16;100.00
20710;BME280;10516;51.518;9.864;2023-11-19T08:21:08;98013.88;;;7.25;100.00
20710;BME280;10516;51.518;9.864;2023-11-19T08:23:34;98015.00;;;7.29;100.00
20710;BME280;10516;51.518;9.864;2023-11-19T08:25:59;98024.88;;;7.33;100.00
20710;BME280;10516;51.518;9.864;2023-11-19T08:28:25;98017.09;;;7.53;100.00
20710;BME280;10516;51.518;9.864;2023-11-19T08:30:50;98018.28;;;7.63;100.00
20710;BME280;10516;51.518;9.864;2023-11-19T08:33:16;98037.81;;;7.73;100.00
20710;BME280;10516;51.518;9.864;2023-11-19T08:35:42;98034.00;;;7.69;100.00
20710;BME280;10516;51.518;9.864;2023-11-19T08:38:10;98031.13;;;7.71;100.00
20710;BME280;10516;51.518;9.864;2023-11-19T08:40:35;98032.78;;;7.77;100.00
20710;BME280;10516;51.518;9.864;2023-11-19T08:43:00;98054.28;;;7.75;100.00
20710;BME280;10516;51.518;9.864;2023-11-19T08:45:26;98040.75;;;7.77;100.00
20710;BME280;10516;51.518;9.864;2023-11-19T08:47:51;98035.91;;;7.74;100.00
20710;BME280;10516;51.518;9.864;2023-11-19T08:50:16;98038.53;;;7.69;99.73
20710;BME280;10516;51.518;9.864;2023-11-19T08:52:42;98052.47;;;7.81;100.00
20710;BME280;10516;51.518;9.864;2023-11-19T08:55:07;98057.78;;;7.81;99.20
20710;BME280;10516;51.518;9.864;2023-11-19T08:57:35;98045.13;;;7.88;99.46
20710;BME280;10516;51.518;9.864;2023-11-19T09:00:00;98046.00;;;7.98;99.75
20710;BME280;10516;51.518;9.864;2023-11-19T09:02:26;98051.06;;;8.00;99.57
20710;BME280;10516;51.518;9.864;2023-11-19T09:04:51;98048.94;;;8.02;99.79
20710;BME280;10516;51.518;9.864;2023-11-19T09:07:17;98039.34;;;7.96;100.00
20710;BME280;10516;51.518;9.864;2023-11-19T09:09:42;98056.50;;;8.10;100.00
20710;BME280;10516;51.518;9.864;2023-11-19T09:12:08;98064.28;;;8.21;100.00
20710;BME280;10516;51.518;9.864;2023-11-19T09:14:33;98066.81;;;8.33;99.77
20710;BME280;10516;51.518;9.864;2023-11-19T09:16:58;98060.31;;;8.24;100.00
20710;BME280;10516;51.518;9.864;2023-11-19T09:19:25;98062.56;;;8.32;99.93
20710;BME280;10516;51.518;9.864;2023-11-19T09:21:54;98041.72;;;8.24;100.00
20710;BME280;10516;51.518;9.864;2023-11-19T09:24:19;98064.44;;;8.37;99.30
20710;BME280;10516;51.518;9.864;2023-11-19T09:26:45;98060.41;;;8.29;99.17
20710;BME280;10516;51.518;9.864;2023-11-19T09:29:11;98062.16;;;8.18;99.27
20710;BME280;10516;51.518;9.864;2023-11-19T09:31:37;98059.50;;;8.18;99.23
20710;BME280;10516;51.518;9.864;2023-11-19T09:34:03;98059.78;;;8.22;98.80
20710;BME280;10516;51.518;9.864;2023-11-19T09:36:28;98065.81;;;8.12;98.82
20710;BME280;10516;51.518;9.864;2023-11-19T09:38:54;98069.59;;;8.21;98.99
20710;BME280;10516;51.518;9.864;2023-11-19T09:41:19;98059.78;;;8.22;98.83
20710;BME280;10516;51.518;9.864;2023-11-19T09:43:44;98069.97;;;8.30;97.53
20710;BME280;10516;51.518;9.864;2023-11-19T09:46:10;98076.69;;;8.38;97.09
20710;BME280;10516;51.518;9.864;2023-11-19T09:48:37;98075.09;;;8.37;97.02
20710;BME280;10516;51.518;9.864;2023-11-19T09:51:07;98074.03;;;8.38;96.49
20710;BME280;10516;51.518;9.864;2023-11-19T09:53:33;98075.47;;;8.50;95.32
20710;BME280;10516;51.518;9.864;2023-11-19T09:56:06;98062.44;;;8.49;95.30
20710;BME280;10516;51.518;9.864;2023-11-19T09:58:33;98063.06;;;8.61;94.31
20710;BME280;10516;51.518;9.864;2023-11-19T10:00:59;98074.44;;;8.56;94.34
20710;BME280;10516;51.518;9.864;2023-11-19T10:03:33;98078.47;;;8.59;93.59
20710;BME280;10516;51.518;9.864;2023-11-19T10:06:01;98074.50;;;8.61;93.86
20710;BME280;10516;51.518;9.864;2023-11-19T10:08:26;98077.13;;;8.56;93.06
20710;BME280;10516;51.518;9.864;2023-11-19T10:10:52;98084.88;;;8.63;93.20
20710;BME280;10516;51.518;9.864;2023-11-19T10:13:17;98077.13;;;8.56;93.92
20710;BME280;10516;51.518;9.864;2023-11-19T10:15:43;98079.88;;;8.66;93.14
20710;BME280;10516;51.518;9.864;2023-11-19T10:18:09;98075.59;;;8.65;92.54
20710;BME280;10516;51.518;9.864;2023-11-19T10:20:38;98063.59;;;8.58;92.89
20710;BME280;10516;51.518;9.864;2023-11-19T10:23:05;98062.78;;;8.57;91.83
20710;BME280;10516;51.518;9.864;2023-11-19T10:25:32;98052.97;;;8.63;91.79
20710;BME280;10516;51.518;9.864;2023-11-19T10:27:58;98064.72;;;8.67;91.83
20710;BME280;10516;51.518;9.864;2023-11-19T10:30:25;98074.31;;;8.73;91.24
20710;BME280;10516;51.518;9.864;2023-11-19T10:33:10;98067.72;;;8.80;90.90
20710;BME280;10516;51.518;9.864;2023-11-19T10:35:51;98052.03;;;8.79;90.77
20710;BME280;10516;51.518;9.864;2023-11-19T10:38:18;98069.94;;;8.93;90.88
20710;BME280;10516;51.518;9.864;2023-11-19T10:40:44;98063.56;;;8.94;89.77
20710;BME280;10516;51.518;9.864;2023-11-19T10:43:09;98063.28;;;8.91;89.80
20710;BME280;10516;51.518;9.864;2023-11-19T10:45:36;98071.50;;;8.89;89.53
20710;BME280;10516;51.518;9.864;2023-11-19T10:48:03;98058.69;;;8.81;90.32
20710;BME280;10516;51.518;9.864;2023-11-19T10:50:33;98067.00;;;8.90;90.34
20710;BME280;10516;51.518;9.864;2023-11-19T10:52:59;98063.84;;;8.93;89.66
20710;BME280;10516;51.518;9.864;2023-11-19T10:55:30;98058.25;;;8.94;89.79
20710;BME280;10516;51.518;9.864;2023-11-19T10:58:01;98063.69;;;9.15;87.83
20710;BME280;10516;51.518;9.864;2023-11-19T11:00:29;98058.47;;;9.35;87.24
20710;BME280;10516;51.518;9.864;2023-11-19T11:03:00;98061.91;;;9.30;86.61
20710;BME280;10516;51.518;9.864;2023-11-19T11:05:26;98049.69;;;9.39;85.27
20710;BME280;10516;51.518;9.864;2023-11-19T11:07:55;98043.09;;;9.52;85.43
20710;BME280;10516;51.518;9.864;2023-11-19T11:10:24;98046.56;;;9.57;84.79
20710;BME280;10516;51.518;9.864;2023-11-19T11:12:52;98037.50;;;9.53;83.75
20710;BME280;10516;51.518;9.864;2023-11-19T11:15:26;98043.88;;;9.52;84.21
20710;BME280;10516;51.518;9.864;2023-11-19T11:18:00;98054.84;;;9.66;83.70
20710;BME280;10516;51.518;9.864;2023-11-19T11:20:30;98047.88;;;9.55;83.38
20710;BME280;10516;51.518;9.864;2023-11-19T11:36:22;98054.75;;;9.46;82.82
20710;BME280;10516;51.518;9.864;2023-11-19T11:38:49;98072.84;;;9.34;84.47
20710;BME280;10516;51.518;9.864;2023-11-19T11:46:55;98086.16;;;9.34;85.04
20710;BME280;10516;51.518;9.864;2023-11-19T11:49:27;98073.66;;;9.34;85.41
20710;BME280;10516;51.518;9.864;2023-11-19T11:51:58;98089.38;;;9.41;85.37
20710;BME280;10516;51.518;9.864;2023-11-19T11:57:10;98066.41;;;9.25;86.78
20710;BME280;10516;51.518;9.864;2023-11-19T11:59:37;98068.00;;;9.26;87.71
20710;BME280;10516;51.518;9.864;2023-11-19T12:02:03;98064.78;;;9.19;88.08
20710;BME280;10516;51.518;9.864;2023-11-19T12:04:29;98069.00;;;9.15;88.80
20710;BME280;10516;51.518;9.864;2023-11-19T12:09:31;98061.81;;;9.10;88.10
20710;BME280;10516;51.518;9.864;2023-11-19T12:12:18;98071.19;;;9.23;87.84
20710;BME280;10516;51.518;9.864;2023-11-19T12:15:06;98087.69;;;9.25;88.51
20710;BME280;10516;51.518;9.864;2023-11-19T12:19:59;98088.69;;;9.14;89.13
20710;BME280;10516;51.518;9.864;2023-11-19T12:22:25;98089.00;;;9.17;89.59
20710;BME280;10516;51.518;9.864;2023-11-19T12:24:52;98092.38;;;9.07;89.67
20710;BME280;10516;51.518;9.864;2023-11-19T12:27:19;98090.22;;;8.99;89.75
20710;BME280;10516;51.518;9.864;2023-11-19T12:29:47;98080.03;;;8.86;91.59
20710;BME280;10516;51.518;9.864;2023-11-19T12:32:12;98096.97;;;8.80;91.75
20710;BME280;10516;51.518;9.864;2023-11-19T12:34:38;98098.88;;;8.80;91.84
20710;BME280;10516;51.518;9.864;2023-11-19T12:37:04;98088.47;;;8.78;92.17
20710;BME280;10516;51.518;9.864;2023-11-19T12:39:30;98082.38;;;8.83;92.09
20710;BME280;10516;51.518;9.864;2023-11-19T12:41:56;98071.66;;;8.73;92.12
20710;BME280;10516;51.518;9.864;2023-11-19T12:44:24;98091.53;;;8.97;91.51
20710;BME280;10516;51.518;9.864;2023-11-19T12:47:03;98096.09;;;9.01;91.60
20710;BME280;10516;51.518;9.864;2023-11-19T12:49:29;98096.03;;;8.96;92.24
20710;BME280;10516;51.518;9.864;2023-11-19T12:51:55;98087.50;;;8.94;92.07
20710;BME280;10516;51.518;9.864;2023-11-19T12:54:32;98079.03;;;9.02;91.57
20710;BME280;10516;51.518;9.864;2023-11-19T12:56:57;98066.03;;;9.06;91.32
20710;BME280;10516;51.518;9.864;2023-11-19T12:59:24;98062.03;;;9.03;91.98
20710;BME280;10516;51.518;9.864;2023-11-19T13:01:59;98065.22;;;9.05;92.17
20710;BME280;10516;51.518;9.864;2023-11-19T13:04:29;98051.13;;;9.05;93.91
20710;BME280;10516;51.518;9.864;2023-11-19T13:06:58;98052.50;;;9.18;91.81
20710;BME280;10516;51.518;9.864;2023-11-19T13:09:27;98053.03;;;9.15;91.84
20710;BME280;10516;51.518;9.864;2023-11-19T13:11:53;98039.38;;;9.01;93.77
20710;BME280;10516;51.518;9.864;2023-11-19T13:14:19;98051.97;;;9.11;91.90
20710;BME280;10516;51.518;9.864;2023-11-19T13:16:45;98046.06;;;9.03;93.31
20710;BME280;10516;51.518;9.864;2023-11-19T13:19:12;98050.06;;;9.11;94.19
20710;BME280;10516;51.518;9.864;2023-11-19T13:21:38;98053.13;;;9.30;94.04
20710;BME280;10516;51.518;9.864;2023-11-19T13:24:07;98040.13;;;9.48;93.00
20710;BME280;10516;51.518;9.864;2023-11-19T13:26:33;98047.84;;;9.45;94.39
20710;BME280;10516;51.518;9.864;2023-11-19T13:29:00;98040.72;;;9.60;95.41